^^
Station Historical Data
Daily Summary for December 9, 2017 Units:  Both    English   Metric
« Previous Day
Next Day »
Daily Weekly Monthly Yearly Custom
  High: Low: Average:
Temperature: 80.2 °F /  26.8 °C 67.6 °F /  19.8 °C 76.6 °F /  24.8 °C
Dew Point: 55.4 °F /  13 °C 45.3 °F /  7.4 °C 48.3 °F /  9.1 °C
Humidity: 65% 30% 38%
Wind Speed: 17.9mph /  28.8km/h - -3.6mph /  -5.8km/h
Wind Gust: 27.0mph /  43.5km/h - -
Wind- - NNE
Pressure: 30.29 in /  1025.6 hPa 30.15 in /  1020.9 hPa -
Precipitation: 0.00 in /  0 mm    
Historical Graphs
 
 
Tabular Data for December 9, 2017
Time Temperature Dew Point Pressure Wind Wind Speed Wind Gust Humidity Rainfall Rate (Hourly) solar Conditions
08:47 67.6 °F /  19.8 °C 55.4 °F /  13 °C 30.29in /  1025.6hPa ENE 4.9mph /  7.9km/h 5.0mph /  8km/h 65% 0.00in /  0mm meteobridge W/m2
08:53 67.8 °F /  19.9 °C 55.2 °F /  12.9 °C 30.28in /  1025.3hPa NNE 8.1mph /  13km/h 8.1mph /  13km/h 64% 0.00in /  0mm meteobridge W/m2
08:59 68.4 °F /  20.2 °C 55.2 °F /  12.9 °C 30.28in /  1025.3hPa Calm   5.0mph /  8km/h 63% 0.00in /  0mm meteobridge W/m2
09:05 69.8 °F /  21 °C 55.2 °F /  12.9 °C 30.29in /  1025.6hPa North 6.0mph /  9.7km/h 11.0mph /  17.7km/h 60% 0.00in /  0mm meteobridge W/m2
09:24 69.4 °F /  20.8 °C 54.9 °F /  12.7 °C 30.28in /  1025.3hPa NNE 4.9mph /  7.9km/h 9.0mph /  14.5km/h 60% 0.00in /  0mm meteobridge W/m2
09:30 70.9 °F /  21.6 °C 55.4 °F /  13 °C 30.28in /  1025.3hPa NNE 4.9mph /  7.9km/h 9.0mph /  14.5km/h 58% 0.00in /  0mm meteobridge W/m2
09:36 71.2 °F /  21.8 °C 54.3 °F /  12.4 °C 30.28in /  1025.3hPa ENE 2.9mph /  4.7km/h 6.0mph /  9.7km/h 55% 0.00in /  0mm meteobridge W/m2
09:54 73.2 °F /  22.9 °C 52.3 °F /  11.3 °C 30.27in /  1024.9hPa North 4.0mph /  6.4km/h 10.0mph /  16.1km/h 48% 0.00in /  0mm meteobridge W/m2
10:00 73.6 °F /  23.1 °C 50.4 °F /  10.2 °C 30.27in /  1024.9hPa NNW 4.9mph /  7.9km/h 14.0mph /  22.5km/h 44% 0.00in /  0mm meteobridge W/m2
10:06 73.6 °F /  23.1 °C 49.6 °F /  9.8 °C 30.28in /  1025.3hPa NNW 13.0mph /  20.9km/h 16.0mph /  25.7km/h 43% 0.00in /  0mm meteobridge W/m2
10:19 73.8 °F /  23.2 °C 51.1 °F /  10.6 °C 30.28in /  1025.3hPa North 11.0mph /  17.7km/h 16.0mph /  25.7km/h 45% 0.00in /  0mm meteobridge W/m2
10:25 73.8 °F /  23.2 °C 50.5 °F /  10.3 °C 30.28in /  1025.3hPa NNE 11.0mph /  17.7km/h 17.0mph /  27.4km/h 44% 0.00in /  0mm meteobridge W/m2
10:31 73.9 °F /  23.3 °C 50.7 °F /  10.4 °C 30.27in /  1024.9hPa NNW 13.0mph /  20.9km/h 15.0mph /  24.1km/h 44% 0.00in /  0mm meteobridge W/m2
10:37 73.8 °F /  23.2 °C 50.5 °F /  10.3 °C 30.27in /  1024.9hPa NNW 15.0mph /  24.1km/h 17.0mph /  27.4km/h 44% 0.00in /  0mm meteobridge W/m2
10:43 73.9 °F /  23.3 °C 50.7 °F /  10.4 °C 30.28in /  1025.3hPa North 11.0mph /  17.7km/h 16.0mph /  25.7km/h 44% 0.00in /  0mm meteobridge W/m2
10:49 75.0 °F /  23.9 °C 49.6 °F /  9.8 °C 30.27in /  1024.9hPa NW 12.1mph /  19.5km/h 19.0mph /  30.6km/h 41% 0.00in /  0mm meteobridge W/m2
10:55 75.6 °F /  24.2 °C 48.2 °F /  9 °C 30.27in /  1024.9hPa NNW 11.0mph /  17.7km/h 21.0mph /  33.8km/h 38% 0.00in /  0mm meteobridge W/m2
11:02 75.0 °F /  23.9 °C 48.4 °F /  9.1 °C 30.27in /  1024.9hPa NNE 17.9mph /  28.8km/h 27.0mph /  43.5km/h 39% 0.00in /  0mm meteobridge W/m2
11:14 75.7 °F /  24.3 °C 49.1 °F /  9.5 °C 30.26in /  1024.6hPa North 17.9mph /  28.8km/h 23.0mph /  37km/h 39% 0.00in /  0mm meteobridge W/m2
11:20 75.7 °F /  24.3 °C 49.1 °F /  9.5 °C 30.26in /  1024.6hPa SSE 4.9mph /  7.9km/h 12.0mph /  19.3km/h 39% 0.00in /  0mm meteobridge W/m2
11:26 74.8 °F /  23.8 °C 48.9 °F /  9.4 °C 30.26in /  1024.6hPa NNE 8.9mph /  14.3km/h 16.0mph /  25.7km/h 40% 0.00in /  0mm meteobridge W/m2
11:39 75.4 °F /  24.1 °C 48.7 °F /  9.3 °C 30.26in /  1024.6hPa North 12.1mph /  19.5km/h 19.0mph /  30.6km/h 39% 0.00in /  0mm meteobridge W/m2
11:57 75.9 °F /  24.4 °C 47.8 °F /  8.8 °C 30.26in /  1024.6hPa North 14.1mph /  22.7km/h 17.0mph /  27.4km/h 37% 0.00in /  0mm meteobridge W/m2
12:03 76.8 °F /  24.9 °C 48.6 °F /  9.2 °C 30.25in /  1024.3hPa North 11.0mph /  17.7km/h 13.0mph /  20.9km/h 37% 0.00in /  0mm meteobridge W/m2
12:09 77.2 °F /  25.1 °C 48.2 °F /  9 °C 30.24in /  1023.9hPa North 14.1mph /  22.7km/h 20.0mph /  32.2km/h 36% 0.00in /  0mm meteobridge W/m2
12:15 76.6 °F /  24.8 °C 47.7 °F /  8.7 °C 30.24in /  1023.9hPa North 4.9mph /  7.9km/h 11.0mph /  17.7km/h 36% 0.00in /  0mm meteobridge W/m2
12:28 75.9 °F /  24.4 °C 47.8 °F /  8.8 °C 30.24in /  1023.9hPa North 6.0mph /  9.7km/h 16.0mph /  25.7km/h 37% 0.00in /  0mm meteobridge W/m2
12:34 76.5 °F /  24.7 °C 48.9 °F /  9.4 °C 30.24in /  1023.9hPa North 12.1mph /  19.5km/h 21.0mph /  33.8km/h 38% 0.00in /  0mm meteobridge W/m2
12:46 77.4 °F /  25.2 °C 47.5 °F /  8.6 °C 30.24in /  1023.9hPa NNW 11.0mph /  17.7km/h 14.0mph /  22.5km/h 35% 0.00in /  0mm meteobridge W/m2
12:52 77.4 °F /  25.2 °C 46.8 °F /  8.2 °C 30.24in /  1023.9hPa NNE 15.0mph /  24.1km/h 21.0mph /  33.8km/h 34% 0.00in /  0mm meteobridge W/m2
12:58 77.5 °F /  25.3 °C 47.7 °F /  8.7 °C 30.24in /  1023.9hPa NNE 8.1mph /  13km/h 14.0mph /  22.5km/h 35% 0.00in /  0mm meteobridge W/m2
13:11 77.0 °F /  25 °C 48.0 °F /  8.9 °C 30.23in /  1023.6hPa NNE 17.9mph /  28.8km/h 18.0mph /  29km/h 36% 0.00in /  0mm meteobridge W/m2
13:17 78.1 °F /  25.6 °C 48.9 °F /  9.4 °C 30.23in /  1023.6hPa North 14.1mph /  22.7km/h 16.0mph /  25.7km/h 36% 0.00in /  0mm meteobridge W/m2
13:23 79.0 °F /  26.1 °C 48.2 °F /  9 °C 30.22in /  1023.2hPa NNE 4.0mph /  6.4km/h 9.0mph /  14.5km/h 34% 0.00in /  0mm meteobridge W/m2
13:35 78.6 °F /  25.9 °C 47.1 °F /  8.4 °C 30.22in /  1023.2hPa North 12.1mph /  19.5km/h 18.0mph /  29km/h 33% 0.00in /  0mm meteobridge W/m2
13:41 79.3 °F /  26.3 °C 46.0 °F /  7.8 °C 30.21in /  1022.9hPa NNW 4.0mph /  6.4km/h 9.0mph /  14.5km/h 31% 0.00in /  0mm meteobridge W/m2
13:47 79.0 °F /  26.1 °C 46.6 °F /  8.1 °C 30.21in /  1022.9hPa NNE 15.0mph /  24.1km/h 17.0mph /  27.4km/h 32% 0.00in /  0mm meteobridge W/m2
13:59 78.1 °F /  25.6 °C 48.2 °F /  9 °C 30.21in /  1022.9hPa NNE 8.1mph /  13km/h 15.0mph /  24.1km/h 35% 0.00in /  0mm meteobridge W/m2
14:05 78.4 °F /  25.8 °C 48.6 °F /  9.2 °C 30.21in /  1022.9hPa North 6.9mph /  11.1km/h 13.0mph /  20.9km/h 35% 0.00in /  0mm meteobridge W/m2
14:11 77.7 °F /  25.4 °C 47.1 °F /  8.4 °C 30.21in /  1022.9hPa North 11.0mph /  17.7km/h 13.0mph /  20.9km/h 34% 0.00in /  0mm meteobridge W/m2
14:17 78.3 °F /  25.7 °C 46.8 °F /  8.2 °C 30.21in /  1022.9hPa North 6.9mph /  11.1km/h 12.0mph /  19.3km/h 33% 0.00in /  0mm meteobridge W/m2
14:23 79.2 °F /  26.2 °C 47.7 °F /  8.7 °C 30.20in /  1022.6hPa NNE 6.0mph /  9.7km/h 19.0mph /  30.6km/h 33% 0.00in /  0mm meteobridge W/m2
14:35 80.2 °F /  26.8 °C 46.9 °F /  8.3 °C 30.19in /  1022.2hPa NNE 11.0mph /  17.7km/h 22.0mph /  35.4km/h 31% 0.00in /  0mm meteobridge W/m2
14:42 80.1 °F /  26.7 °C 48.4 °F /  9.1 °C 30.19in /  1022.2hPa NNE 10.1mph /  16.3km/h 13.0mph /  20.9km/h 33% 0.00in /  0mm meteobridge W/m2
14:48 79.9 °F /  26.6 °C 48.2 °F /  9 °C 30.19in /  1022.2hPa NNE 10.1mph /  16.3km/h 14.0mph /  22.5km/h 33% 0.00in /  0mm meteobridge W/m2
14:54 79.9 °F /  26.6 °C 48.2 °F /  9 °C 30.19in /  1022.2hPa North 10.1mph /  16.3km/h 16.0mph /  25.7km/h 33% 0.00in /  0mm meteobridge W/m2
15:06 78.6 °F /  25.9 °C 47.8 °F /  8.8 °C 30.18in /  1021.9hPa NNW 16.1mph /  25.9km/h 16.1mph /  25.9km/h 34% 0.00in /  0mm meteobridge W/m2
15:12 78.3 °F /  25.7 °C 46.8 °F /  8.2 °C 30.19in /  1022.2hPa North 11.0mph /  17.7km/h 13.0mph /  20.9km/h 33% 0.00in /  0mm meteobridge W/m2
15:18 77.9 °F /  25.5 °C 48.0 °F /  8.9 °C 30.19in /  1022.2hPa NNE 10.1mph /  16.3km/h 13.0mph /  20.9km/h 35% 0.00in /  0mm meteobridge W/m2
15:24 78.1 °F /  25.6 °C 46.6 °F /  8.1 °C 30.19in /  1022.2hPa NNE 10.1mph /  16.3km/h 17.0mph /  27.4km/h 33% 0.00in /  0mm meteobridge W/m2
15:30 78.4 °F /  25.8 °C 46.9 °F /  8.3 °C 30.19in /  1022.2hPa NNE 6.9mph /  11.1km/h 15.0mph /  24.1km/h 33% 0.00in /  0mm meteobridge W/m2
15:36 79.2 °F /  26.2 °C 46.8 °F /  8.2 °C 30.19in /  1022.2hPa NNE 2.9mph /  4.7km/h 9.0mph /  14.5km/h 32% 0.00in /  0mm meteobridge W/m2
15:42 80.2 °F /  26.8 °C 46.9 °F /  8.3 °C 30.18in /  1021.9hPa NNW 4.9mph /  7.9km/h 14.0mph /  22.5km/h 31% 0.00in /  0mm meteobridge W/m2
15:48 79.3 °F /  26.3 °C 47.7 °F /  8.7 °C 30.18in /  1021.9hPa NNW 15.0mph /  24.1km/h 15.0mph /  24.1km/h 33% 0.00in /  0mm meteobridge W/m2
16:00 78.1 °F /  25.6 °C 47.5 °F /  8.6 °C 30.18in /  1021.9hPa NNW 10.1mph /  16.3km/h 12.0mph /  19.3km/h 34% 0.00in /  0mm meteobridge W/m2
16:06 77.5 °F /  25.3 °C 46.9 °F /  8.3 °C 30.18in /  1021.9hPa North 8.1mph /  13km/h 16.0mph /  25.7km/h 34% 0.00in /  0mm meteobridge W/m2
16:18 78.1 °F /  25.6 °C 47.5 °F /  8.6 °C 30.18in /  1021.9hPa North 6.9mph /  11.1km/h 14.0mph /  22.5km/h 34% 0.00in /  0mm meteobridge W/m2
16:24 78.6 °F /  25.9 °C 47.1 °F /  8.4 °C 30.17in /  1021.6hPa NNE 6.0mph /  9.7km/h 13.0mph /  20.9km/h 33% 0.00in /  0mm meteobridge W/m2
16:30 78.4 °F /  25.8 °C 47.7 °F /  8.7 °C 30.17in /  1021.6hPa NNE 13.0mph /  20.9km/h 13.0mph /  20.9km/h 34% 0.00in /  0mm meteobridge W/m2
16:36 79.5 °F /  26.4 °C 46.2 °F /  7.9 °C 30.17in /  1021.6hPa North 2.0mph /  3.2km/h 5.0mph /  8km/h 31% 0.00in /  0mm meteobridge W/m2
16:42 80.2 °F /  26.8 °C 46.0 °F /  7.8 °C 30.16in /  1021.2hPa NNW 10.1mph /  16.3km/h 12.0mph /  19.3km/h 30% 0.00in /  0mm meteobridge W/m2
16:48 79.9 °F /  26.6 °C 46.6 °F /  8.1 °C 30.16in /  1021.2hPa North 10.1mph /  16.3km/h 13.0mph /  20.9km/h 31% 0.00in /  0mm meteobridge W/m2
16:54 78.4 °F /  25.8 °C 46.2 °F /  7.9 °C 30.16in /  1021.2hPa North 4.9mph /  7.9km/h 10.0mph /  16.1km/h 32% 0.00in /  0mm meteobridge W/m2
17:00 78.3 °F /  25.7 °C 46.0 °F /  7.8 °C 30.16in /  1021.2hPa NNW 11.0mph /  17.7km/h 14.0mph /  22.5km/h 32% 0.00in /  0mm meteobridge W/m2
17:07 78.4 °F /  25.8 °C 46.2 °F /  7.9 °C 30.16in /  1021.2hPa North 6.0mph /  9.7km/h 7.0mph /  11.3km/h 32% 0.00in /  0mm meteobridge W/m2
17:13 78.4 °F /  25.8 °C 46.2 °F /  7.9 °C 30.16in /  1021.2hPa NNW 6.9mph /  11.1km/h 13.0mph /  20.9km/h 32% 0.00in /  0mm meteobridge W/m2
17:25 77.5 °F /  25.3 °C 45.3 °F /  7.4 °C 30.15in /  1020.9hPa NNE 6.0mph /  9.7km/h 9.0mph /  14.5km/h 32% 0.00in /  0mm meteobridge W/m2
17:31 78.6 °F /  25.9 °C 45.5 °F /  7.5 °C 30.15in /  1020.9hPa NNE 4.0mph /  6.4km/h 10.0mph /  16.1km/h 31% 0.00in /  0mm meteobridge W/m2
17:37 79.5 °F /  26.4 °C 46.2 °F /  7.9 °C 30.16in /  1021.2hPa NE 4.0mph /  6.4km/h 9.0mph /  14.5km/h 31% 0.00in /  0mm meteobridge W/m2
17:43 79.0 °F /  26.1 °C 46.6 °F /  8.1 °C 30.16in /  1021.2hPa North 8.9mph /  14.3km/h 13.0mph /  20.9km/h 32% 0.00in /  0mm meteobridge W/m2
17:50 78.3 °F /  25.7 °C 48.4 °F /  9.1 °C 30.15in /  1020.9hPa NNW 14.1mph /  22.7km/h 19.0mph /  30.6km/h 35% 0.00in /  0mm meteobridge W/m2
17:56 77.0 °F /  25 °C 47.3 °F /  8.5 °C 30.16in /  1021.2hPa NNW 14.1mph /  22.7km/h 16.0mph /  25.7km/h 35% 0.00in /  0mm meteobridge W/m2
18:18 75.2 °F /  24 °C 46.4 °F /  8 °C 30.16in /  1021.2hPa North 10.1mph /  16.3km/h 11.0mph /  17.7km/h 36% 0.00in /  0mm meteobridge W/m2
18:24 75.7 °F /  24.3 °C 46.9 °F /  8.3 °C 30.17in /  1021.6hPa NNE 8.1mph /  13km/h 12.0mph /  19.3km/h 36% 0.00in /  0mm meteobridge W/m2
18:30 76.3 °F /  24.6 °C 45.9 °F /  7.7 °C 30.17in /  1021.6hPa North 11.0mph /  17.7km/h 11.0mph /  17.7km/h 34% 0.00in /  0mm meteobridge W/m2
18:43 76.3 °F /  24.6 °C 45.9 °F /  7.7 °C 30.17in /  1021.6hPa NNW 6.0mph /  9.7km/h 6.0mph /  9.7km/h 34% 0.00in /  0mm meteobridge W/m2
18:49 76.3 °F /  24.6 °C 45.9 °F /  7.7 °C 30.18in /  1021.9hPa NNW 6.0mph /  9.7km/h -999.0mph /  -1607.7km/h 34% 0.00in /  0mm meteobridge W/m2
18:56 76.3 °F /  24.6 °C 45.9 °F /  7.7 °C 30.18in /  1021.9hPa NNW 6.0mph /  9.7km/h -999.0mph /  -1607.7km/h 34% 0.00in /  0mm meteobridge W/m2
19:01 76.3 °F /  24.6 °C 45.9 °F /  7.7 °C 30.18in /  1021.9hPa North -999.9mph /  -1609.1km/h -999.0mph /  -1607.7km/h 34% 0.00in /  0mm meteobridge W/m2
Regenstein, Windhoek, Namibia
Compliments of Weather Underground - 2.25 mb